sensor_id;sensor_type;location;lat;lon;timestamp;temperature;humidity
48686;DHT22;34485;51.536;3.816;2023-05-18T00:01:06;8.20;99.90
48686;DHT22;34485;51.536;3.816;2023-05-18T00:03:31;8.20;99.90
48686;DHT22;34485;51.536;3.816;2023-05-18T00:05:58;8.20;99.90
48686;DHT22;34485;51.536;3.816;2023-05-18T00:08:29;8.10;99.90
48686;DHT22;34485;51.536;3.816;2023-05-18T00:10:56;8.10;99.90
48686;DHT22;34485;51.536;3.816;2023-05-18T00:13:22;8.10;99.90
48686;DHT22;34485;51.536;3.816;2023-05-18T00:15:47;8.10;99.90
48686;DHT22;34485;51.536;3.816;2023-05-18T00:18:13;8.10;99.90
48686;DHT22;34485;51.536;3.816;2023-05-18T00:20:38;8.10;99.90
48686;DHT22;34485;51.536;3.816;2023-05-18T00:23:04;8.20;99.90
48686;DHT22;34485;51.536;3.816;2023-05-18T00:25:30;8.20;99.90
48686;DHT22;34485;51.536;3.816;2023-05-18T00:27:56;8.20;99.90
48686;DHT22;34485;51.536;3.816;2023-05-18T00:30:21;8.20;99.90
48686;DHT22;34485;51.536;3.816;2023-05-18T00:32:49;8.20;99.90
48686;DHT22;34485;51.536;3.816;2023-05-18T00:35:15;8.20;99.90
48686;DHT22;34485;51.536;3.816;2023-05-18T00:37:41;8.20;99.90
48686;DHT22;34485;51.536;3.816;2023-05-18T00:40:07;8.20;99.90
48686;DHT22;34485;51.536;3.816;2023-05-18T00:42:33;8.20;99.90
48686;DHT22;34485;51.536;3.816;2023-05-18T00:44:59;8.10;99.90
48686;DHT22;34485;51.536;3.816;2023-05-18T00:47:25;8.10;99.90
48686;DHT22;34485;51.536;3.816;2023-05-18T00:49:52;8.00;99.90
48686;DHT22;34485;51.536;3.816;2023-05-18T00:52:17;8.10;99.90
48686;DHT22;34485;51.536;3.816;2023-05-18T00:54:43;8.10;99.90
48686;DHT22;34485;51.536;3.816;2023-05-18T00:57:10;8.10;99.90
48686;DHT22;34485;51.536;3.816;2023-05-18T00:59:35;8.10;99.90
48686;DHT22;34485;51.536;3.816;2023-05-18T01:02:01;8.10;99.90
48686;DHT22;34485;51.536;3.816;2023-05-18T01:04:27;8.10;99.90
48686;DHT22;34485;51.536;3.816;2023-05-18T01:06:56;8.10;99.90
48686;DHT22;34485;51.536;3.816;2023-05-18T01:09:23;8.10;99.90
48686;DHT22;34485;51.536;3.816;2023-05-18T01:11:55;8.10;99.90
48686;DHT22;34485;51.536;3.816;2023-05-18T01:25:16;8.00;99.90
48686;DHT22;34485;51.536;3.816;2023-05-18T01:27:45;8.00;99.90
48686;DHT22;34485;51.536;3.816;2023-05-18T01:30:14;7.90;99.90
48686;DHT22;34485;51.536;3.816;2023-05-18T01:32:40;7.90;99.90
48686;DHT22;34485;51.536;3.816;2023-05-18T01:35:08;7.80;99.90
48686;DHT22;34485;51.536;3.816;2023-05-18T01:37:33;7.70;99.90
48686;DHT22;34485;51.536;3.816;2023-05-18T01:39:59;7.70;99.90
48686;DHT22;34485;51.536;3.816;2023-05-18T01:42:27;7.60;99.90
48686;DHT22;34485;51.536;3.816;2023-05-18T01:44:57;7.50;99.90
48686;DHT22;34485;51.536;3.816;2023-05-18T01:47:24;7.50;99.90
48686;DHT22;34485;51.536;3.816;2023-05-18T01:50:02;7.40;99.90
48686;DHT22;34485;51.536;3.816;2023-05-18T01:52:41;7.50;99.90
48686;DHT22;34485;51.536;3.816;2023-05-18T01:55:09;7.50;99.90
48686;DHT22;34485;51.536;3.816;2023-05-18T01:57:36;7.50;99.90
48686;DHT22;34485;51.536;3.816;2023-05-18T02:00:04;7.50;99.90
48686;DHT22;34485;51.536;3.816;2023-05-18T02:02:32;7.50;99.90
48686;DHT22;34485;51.536;3.816;2023-05-18T02:04:58;7.50;99.90
48686;DHT22;34485;51.536;3.816;2023-05-18T02:07:23;7.50;99.90
48686;DHT22;34485;51.536;3.816;2023-05-18T02:09:49;7.50;99.90
48686;DHT22;34485;51.536;3.816;2023-05-18T02:12:15;7.50;99.90
48686;DHT22;34485;51.536;3.816;2023-05-18T02:14:40;7.60;99.90
48686;DHT22;34485;51.536;3.816;2023-05-18T02:17:06;7.60;99.90
48686;DHT22;34485;51.536;3.816;2023-05-18T02:19:33;7.60;99.90
48686;DHT22;34485;51.536;3.816;2023-05-18T02:22:03;7.60;99.90
48686;DHT22;34485;51.536;3.816;2023-05-18T02:24:31;7.60;99.90
48686;DHT22;34485;51.536;3.816;2023-05-18T02:26:57;7.60;99.90
48686;DHT22;34485;51.536;3.816;2023-05-18T02:29:23;7.60;99.90
48686;DHT22;34485;51.536;3.816;2023-05-18T02:31:48;7.60;99.90
48686;DHT22;34485;51.536;3.816;2023-05-18T02:34:14;7.60;99.90
48686;DHT22;34485;51.536;3.816;2023-05-18T02:36:39;7.60;99.90
48686;DHT22;34485;51.536;3.816;2023-05-18T02:39:08;7.60;99.90
48686;DHT22;34485;51.536;3.816;2023-05-18T02:41:35;7.60;99.90
48686;DHT22;34485;51.536;3.816;2023-05-18T02:44:01;7.60;99.90
48686;DHT22;34485;51.536;3.816;2023-05-18T02:46:27;7.60;99.90
48686;DHT22;34485;51.536;3.816;2023-05-18T02:48:53;7.60;99.90
48686;DHT22;34485;51.536;3.816;2023-05-18T02:51:19;7.60;99.90
48686;DHT22;34485;51.536;3.816;2023-05-18T02:53:46;7.60;99.90
48686;DHT22;34485;51.536;3.816;2023-05-18T02:56:12;7.60;99.90
48686;DHT22;34485;51.536;3.816;2023-05-18T02:58:38;7.60;99.90
48686;DHT22;34485;51.536;3.816;2023-05-18T03:01:04;7.60;99.90
48686;DHT22;34485;51.536;3.816;2023-05-18T03:03:32;7.60;99.90
48686;DHT22;34485;51.536;3.816;2023-05-18T03:06:01;7.60;99.90
48686;DHT22;34485;51.536;3.816;2023-05-18T03:08:27;7.60;99.90
48686;DHT22;34485;51.536;3.816;2023-05-18T03:10:56;7.60;99.90
48686;DHT22;34485;51.536;3.816;2023-05-18T03:13:22;7.60;99.90
48686;DHT22;34485;51.536;3.816;2023-05-18T03:15:47;7.60;99.90
48686;DHT22;34485;51.536;3.816;2023-05-18T03:18:15;7.60;99.90
48686;DHT22;34485;51.536;3.816;2023-05-18T03:20:41;7.60;99.90
48686;DHT22;34485;51.536;3.816;2023-05-18T03:23:07;7.60;99.90
48686;DHT22;34485;51.536;3.816;2023-05-18T03:25:32;7.60;99.90
48686;DHT22;34485;51.536;3.816;2023-05-18T03:28:04;7.60;99.90
48686;DHT22;34485;51.536;3.816;2023-05-18T03:30:33;7.60;99.90
48686;DHT22;34485;51.536;3.816;2023-05-18T03:33:00;7.60;99.90
48686;DHT22;34485;51.536;3.816;2023-05-18T03:35:26;7.60;99.90
48686;DHT22;34485;51.536;3.816;2023-05-18T03:37:52;7.60;99.90
48686;DHT22;34485;51.536;3.816;2023-05-18T03:40:18;7.60;99.90
48686;DHT22;34485;51.536;3.816;2023-05-18T03:42:44;7.60;99.90
48686;DHT22;34485;51.536;3.816;2023-05-18T03:45:10;7.60;99.90
48686;DHT22;34485;51.536;3.816;2023-05-18T03:47:37;7.60;99.90
48686;DHT22;34485;51.536;3.816;2023-05-18T03:50:04;7.60;99.90
48686;DHT22;34485;51.536;3.816;2023-05-18T03:52:31;7.60;99.90
48686;DHT22;34485;51.536;3.816;2023-05-18T03:54:59;7.60;99.90
48686;DHT22;34485;51.536;3.816;2023-05-18T03:57:24;7.70;99.90
48686;DHT22;34485;51.536;3.816;2023-05-18T03:59:51;7.70;99.90
48686;DHT22;34485;51.536;3.816;2023-05-18T04:02:17;7.80;99.90
48686;DHT22;34485;51.536;3.816;2023-05-18T04:04:42;7.80;99.90
48686;DHT22;34485;51.536;3.816;2023-05-18T04:07:11;7.70;99.90
48686;DHT22;34485;51.536;3.816;2023-05-18T04:09:37;7.80;99.90
48686;DHT22;34485;51.536;3.816;2023-05-18T04:12:03;7.80;99.90
48686;DHT22;34485;51.536;3.816;2023-05-18T04:14:29;7.80;99.90
48686;DHT22;34485;51.536;3.816;2023-05-18T04:16:57;7.80;99.90
48686;DHT22;34485;51.536;3.816;2023-05-18T04:19:35;7.80;99.90
48686;DHT22;34485;51.536;3.816;2023-05-18T04:22:02;7.90;99.90
48686;DHT22;34485;51.536;3.816;2023-05-18T04:24:30;7.90;99.90
48686;DHT22;34485;51.536;3.816;2023-05-18T04:27:00;8.00;99.90
48686;DHT22;34485;51.536;3.816;2023-05-18T04:29:27;8.10;99.90
48686;DHT22;34485;51.536;3.816;2023-05-18T04:31:56;8.10;99.90
48686;DHT22;34485;51.536;3.816;2023-05-18T04:34:29;8.20;99.90
48686;DHT22;34485;51.536;3.816;2023-05-18T04:36:55;8.20;99.90
48686;DHT22;34485;51.536;3.816;2023-05-18T04:39:23;8.30;99.90
48686;DHT22;34485;51.536;3.816;2023-05-18T04:41:49;8.40;99.90
48686;DHT22;34485;51.536;3.816;2023-05-18T04:44:16;8.40;99.90
48686;DHT22;34485;51.536;3.816;2023-05-18T04:46:43;8.60;99.90
48686;DHT22;34485;51.536;3.816;2023-05-18T04:49:12;8.70;99.90
48686;DHT22;34485;51.536;3.816;2023-05-18T04:51:39;8.80;99.90
48686;DHT22;34485;51.536;3.816;2023-05-18T04:54:06;8.90;99.90
48686;DHT22;34485;51.536;3.816;2023-05-18T04:56:33;9.00;99.90
48686;DHT22;34485;51.536;3.816;2023-05-18T04:58:59;9.00;99.90
48686;DHT22;34485;51.536;3.816;2023-05-18T05:01:25;9.10;99.90
48686;DHT22;34485;51.536;3.816;2023-05-18T05:03:50;9.10;99.90
48686;DHT22;34485;51.536;3.816;2023-05-18T05:06:16;9.10;99.90
48686;DHT22;34485;51.536;3.816;2023-05-18T05:08:42;9.20;99.90
48686;DHT22;34485;51.536;3.816;2023-05-18T05:11:07;9.20;99.90
48686;DHT22;34485;51.536;3.816;2023-05-18T05:13:33;9.30;99.90
48686;DHT22;34485;51.536;3.816;2023-05-18T05:16:00;9.30;99.90
48686;DHT22;34485;51.536;3.816;2023-05-18T05:18:26;9.40;99.90
48686;DHT22;34485;51.536;3.816;2023-05-18T05:20:53;9.40;99.90
48686;DHT22;34485;51.536;3.816;2023-05-18T05:23:18;9.40;99.80
48686;DHT22;34485;51.536;3.816;2023-05-18T05:25:44;9.30;99.80
48686;DHT22;34485;51.536;3.816;2023-05-18T05:28:10;9.40;99.80
48686;DHT22;34485;51.536;3.816;2023-05-18T05:30:35;9.50;99.60
48686;DHT22;34485;51.536;3.816;2023-05-18T05:33:01;9.50;99.90
48686;DHT22;34485;51.536;3.816;2023-05-18T05:35:27;9.50;99.40
48686;DHT22;34485;51.536;3.816;2023-05-18T05:37:52;9.50;98.70
48686;DHT22;34485;51.536;3.816;2023-05-18T05:40:18;9.50;98.30
48686;DHT22;34485;51.536;3.816;2023-05-18T05:42:44;9.60;97.70
48686;DHT22;34485;51.536;3.816;2023-05-18T05:45:10;9.60;98.70
48686;DHT22;34485;51.536;3.816;2023-05-18T05:47:35;9.70;98.30
48686;DHT22;34485;51.536;3.816;2023-05-18T05:50:01;9.80;98.40
48686;DHT22;34485;51.536;3.816;2023-05-18T05:52:26;9.90;98.20
48686;DHT22;34485;51.536;3.816;2023-05-18T05:54:53;9.90;98.70
48686;DHT22;34485;51.536;3.816;2023-05-18T05:57:19;10.00;99.30
48686;DHT22;34485;51.536;3.816;2023-05-18T05:59:45;10.10;99.50
48686;DHT22;34485;51.536;3.816;2023-05-18T06:02:10;10.10;99.50
48686;DHT22;34485;51.536;3.816;2023-05-18T06:04:36;10.20;98.80
48686;DHT22;34485;51.536;3.816;2023-05-18T06:07:03;10.30;97.60
48686;DHT22;34485;51.536;3.816;2023-05-18T06:09:28;10.20;97.70
48686;DHT22;34485;51.536;3.816;2023-05-18T06:11:54;10.30;99.10
48686;DHT22;34485;51.536;3.816;2023-05-18T06:14:19;10.40;97.60
48686;DHT22;34485;51.536;3.816;2023-05-18T06:16:46;10.40;97.90
48686;DHT22;34485;51.536;3.816;2023-05-18T06:19:11;10.40;98.00
48686;DHT22;34485;51.536;3.816;2023-05-18T06:21:37;10.40;97.30
48686;DHT22;34485;51.536;3.816;2023-05-18T06:24:03;10.40;97.60
48686;DHT22;34485;51.536;3.816;2023-05-18T06:26:30;10.40;97.90
48686;DHT22;34485;51.536;3.816;2023-05-18T06:28:56;10.40;98.20
48686;DHT22;34485;51.536;3.816;2023-05-18T06:31:21;10.50;97.40
48686;DHT22;34485;51.536;3.816;2023-05-18T06:33:47;10.50;97.00
48686;DHT22;34485;51.536;3.816;2023-05-18T06:36:14;10.50;97.50
48686;DHT22;34485;51.536;3.816;2023-05-18T06:38:39;10.60;97.90
48686;DHT22;34485;51.536;3.816;2023-05-18T06:41:05;10.70;97.30
48686;DHT22;34485;51.536;3.816;2023-05-18T06:43:31;10.70;97.00
48686;DHT22;34485;51.536;3.816;2023-05-18T06:45:56;10.70;96.40
48686;DHT22;34485;51.536;3.816;2023-05-18T06:48:26;10.80;97.60
48686;DHT22;34485;51.536;3.816;2023-05-18T06:50:53;10.80;95.80
48686;DHT22;34485;51.536;3.816;2023-05-18T06:53:19;10.80;95.90
48686;DHT22;34485;51.536;3.816;2023-05-18T06:55:45;10.80;95.60
48686;DHT22;34485;51.536;3.816;2023-05-18T06:58:11;10.90;96.00
48686;DHT22;34485;51.536;3.816;2023-05-18T07:00:37;10.90;95.60
48686;DHT22;34485;51.536;3.816;2023-05-18T07:03:03;11.00;95.10
48686;DHT22;34485;51.536;3.816;2023-05-18T07:05:29;11.10;95.30
48686;DHT22;34485;51.536;3.816;2023-05-18T07:07:55;11.20;94.90
48686;DHT22;34485;51.536;3.816;2023-05-18T07:10:20;11.40;93.30
48686;DHT22;34485;51.536;3.816;2023-05-18T07:12:47;11.60;93.80
48686;DHT22;34485;51.536;3.816;2023-05-18T07:15:13;12.10;92.30
48686;DHT22;34485;51.536;3.816;2023-05-18T07:17:39;12.80;91.70
48686;DHT22;34485;51.536;3.816;2023-05-18T07:20:07;13.40;91.20
48686;DHT22;34485;51.536;3.816;2023-05-18T07:22:33;13.80;86.30
48686;DHT22;34485;51.536;3.816;2023-05-18T07:24:59;14.20;83.20
48686;DHT22;34485;51.536;3.816;2023-05-18T07:27:26;14.50;81.50
48686;DHT22;34485;51.536;3.816;2023-05-18T07:29:51;14.60;80.50
48686;DHT22;34485;51.536;3.816;2023-05-18T07:32:17;14.90;78.10
48686;DHT22;34485;51.536;3.816;2023-05-18T07:34:43;14.90;77.80
48686;DHT22;34485;51.536;3.816;2023-05-18T07:37:11;14.90;80.50
48686;DHT22;34485;51.536;3.816;2023-05-18T07:39:36;15.30;79.60
48686;DHT22;34485;51.536;3.816;2023-05-18T07:42:03;15.60;75.10
48686;DHT22;34485;51.536;3.816;2023-05-18T07:44:29;15.90;74.70
48686;DHT22;34485;51.536;3.816;2023-05-18T07:46:54;16.20;74.40
48686;DHT22;34485;51.536;3.816;2023-05-18T07:49:20;16.10;74.00
48686;DHT22;34485;51.536;3.816;2023-05-18T07:51:48;16.10;74.60
48686;DHT22;34485;51.536;3.816;2023-05-18T07:54:14;16.10;72.30
48686;DHT22;34485;51.536;3.816;2023-05-18T07:56:40;16.00;71.80
48686;DHT22;34485;51.536;3.816;2023-05-18T07:59:07;16.30;72.10
48686;DHT22;34485;51.536;3.816;2023-05-18T08:01:33;16.70;72.30
48686;DHT22;34485;51.536;3.816;2023-05-18T08:04:00;16.90;68.90
48686;DHT22;34485;51.536;3.816;2023-05-18T08:06:25;16.90;69.60
48686;DHT22;34485;51.536;3.816;2023-05-18T08:08:51;16.60;68.90
48686;DHT22;34485;51.536;3.816;2023-05-18T08:11:16;16.30;66.90
48686;DHT22;34485;51.536;3.816;2023-05-18T08:13:42;15.80;73.40
48686;DHT22;34485;51.536;3.816;2023-05-18T08:16:08;15.00;76.90
48686;DHT22;34485;51.536;3.816;2023-05-18T08:18:33;14.20;76.90
48686;DHT22;34485;51.536;3.816;2023-05-18T08:20:59;13.50;78.90
48686;DHT22;34485;51.536;3.816;2023-05-18T08:23:26;13.10;84.90
48686;DHT22;34485;51.536;3.816;2023-05-18T08:25:52;13.00;89.30
48686;DHT22;34485;51.536;3.816;2023-05-18T08:28:18;12.80;86.10
48686;DHT22;34485;51.536;3.816;2023-05-18T08:30:43;12.80;88.00
48686;DHT22;34485;51.536;3.816;2023-05-18T08:33:09;12.80;89.20
48686;DHT22;34485;51.536;3.816;2023-05-18T08:35:34;12.70;88.90
48686;DHT22;34485;51.536;3.816;2023-05-18T08:38:00;12.70;90.00
48686;DHT22;34485;51.536;3.816;2023-05-18T08:40:45;12.70;87.40
48686;DHT22;34485;51.536;3.816;2023-05-18T08:43:24;12.70;88.60
48686;DHT22;34485;51.536;3.816;2023-05-18T08:46:20;12.70;89.10
48686;DHT22;34485;51.536;3.816;2023-05-18T08:48:46;12.60;89.50
48686;DHT22;34485;51.536;3.816;2023-05-18T08:51:18;12.40;87.30
48686;DHT22;34485;51.536;3.816;2023-05-18T08:53:45;12.60;87.70
48686;DHT22;34485;51.536;3.816;2023-05-18T08:56:16;12.70;87.90
48686;DHT22;34485;51.536;3.816;2023-05-18T08:58:45;12.80;85.50
48686;DHT22;34485;51.536;3.816;2023-05-18T09:01:12;13.00;84.00
48686;DHT22;34485;51.536;3.816;2023-05-18T09:03:39;13.20;84.10
48686;DHT22;34485;51.536;3.816;2023-05-18T09:06:05;13.50;85.30
48686;DHT22;34485;51.536;3.816;2023-05-18T09:08:32;13.60;82.60
48686;DHT22;34485;51.536;3.816;2023-05-18T09:13:25;14.40;80.40
48686;DHT22;34485;51.536;3.816;2023-05-18T09:15:51;15.10;77.30
48686;DHT22;34485;51.536;3.816;2023-05-18T09:18:17;15.60;72.80
48686;DHT22;34485;51.536;3.816;2023-05-18T09:20:43;15.60;69.30
48686;DHT22;34485;51.536;3.816;2023-05-18T09:23:10;15.50;71.00
48686;DHT22;34485;51.536;3.816;2023-05-18T09:25:45;15.30;68.90
48686;DHT22;34485;51.536;3.816;2023-05-18T09:28:11;15.40;69.80
48686;DHT22;34485;51.536;3.816;2023-05-18T09:30:42;15.50;68.60
48686;DHT22;34485;51.536;3.816;2023-05-18T09:33:15;16.00;66.00
48686;DHT22;34485;51.536;3.816;2023-05-18T09:35:42;16.30;66.30
48686;DHT22;34485;51.536;3.816;2023-05-18T09:38:08;16.40;65.80
48686;DHT22;34485;51.536;3.816;2023-05-18T09:40:34;16.80;64.70
48686;DHT22;34485;51.536;3.816;2023-05-18T09:43:06;16.90;67.20
48686;DHT22;34485;51.536;3.816;2023-05-18T09:45:31;17.20;62.90
48686;DHT22;34485;51.536;3.816;2023-05-18T09:47:57;17.20;63.60
48686;DHT22;34485;51.536;3.816;2023-05-18T09:50:23;16.80;60.40
48686;DHT22;34485;51.536;3.816;2023-05-18T09:52:49;16.70;66.20
48686;DHT22;34485;51.536;3.816;2023-05-18T09:55:16;16.30;64.30
48686;DHT22;34485;51.536;3.816;2023-05-18T09:57:43;16.50;64.40
48686;DHT22;34485;51.536;3.816;2023-05-18T10:00:10;16.20;66.10
48686;DHT22;34485;51.536;3.816;2023-05-18T10:02:40;16.30;65.70
48686;DHT22;34485;51.536;3.816;2023-05-18T10:05:26;16.60;62.80
48686;DHT22;34485;51.536;3.816;2023-05-18T10:07:53;16.70;64.30
48686;DHT22;34485;51.536;3.816;2023-05-18T10:10:21;17.00;64.50
48686;DHT22;34485;51.536;3.816;2023-05-18T10:12:49;16.80;61.80
48686;DHT22;34485;51.536;3.816;2023-05-18T10:15:17;16.80;67.30
48686;DHT22;34485;51.536;3.816;2023-05-18T10:17:46;16.70;63.70
48686;DHT22;34485;51.536;3.816;2023-05-18T10:20:14;16.20;65.80
48686;DHT22;34485;51.536;3.816;2023-05-18T10:22:47;16.00;70.00
48686;DHT22;34485;51.536;3.816;2023-05-18T10:25:21;16.40;67.40
48686;DHT22;34485;51.536;3.816;2023-05-18T10:27:49;16.70;68.50
48686;DHT22;34485;51.536;3.816;2023-05-18T10:30:15;16.60;64.60
48686;DHT22;34485;51.536;3.816;2023-05-18T10:32:42;16.50;67.80
48686;DHT22;34485;51.536;3.816;2023-05-18T10:35:09;16.60;69.20
48686;DHT22;34485;51.536;3.816;2023-05-18T10:37:38;17.00;67.70
48686;DHT22;34485;51.536;3.816;2023-05-18T10:40:05;16.80;63.30
48686;DHT22;34485;51.536;3.816;2023-05-18T10:42:32;16.60;68.40
48686;DHT22;34485;51.536;3.816;2023-05-18T10:44:59;16.80;65.50
48686;DHT22;34485;51.536;3.816;2023-05-18T10:47:27;16.90;64.80
48686;DHT22;34485;51.536;3.816;2023-05-18T10:49:53;16.60;65.50
48686;DHT22;34485;51.536;3.816;2023-05-18T10:52:19;16.30;64.00
48686;DHT22;34485;51.536;3.816;2023-05-18T10:54:47;16.50;65.60
48686;DHT22;34485;51.536;3.816;2023-05-18T10:57:15;16.60;65.10
48686;DHT22;34485;51.536;3.816;2023-05-18T10:59:43;16.60;67.40
48686;DHT22;34485;51.536;3.816;2023-05-18T11:02:15;16.70;63.80
48686;DHT22;34485;51.536;3.816;2023-05-18T11:04:41;17.10;65.40
48686;DHT22;34485;51.536;3.816;2023-05-18T11:07:11;17.00;63.30
48686;DHT22;34485;51.536;3.816;2023-05-18T11:09:40;17.10;63.20
48686;DHT22;34485;51.536;3.816;2023-05-18T11:12:14;17.20;63.00
48686;DHT22;34485;51.536;3.816;2023-05-18T11:14:48;17.20;62.10
48686;DHT22;34485;51.536;3.816;2023-05-18T11:17:25;17.30;63.70
48686;DHT22;34485;51.536;3.816;2023-05-18T11:27:50;17.60;66.70
48686;DHT22;34485;51.536;3.816;2023-05-18T11:30:27;17.70;60.90
48686;DHT22;34485;51.536;3.816;2023-05-18T11:35:33;17.20;59.40
48686;DHT22;34485;51.536;3.816;2023-05-18T11:38:06;17.00;65.60
48686;DHT22;34485;51.536;3.816;2023-05-18T11:43:19;16.60;61.00
48686;DHT22;34485;51.536;3.816;2023-05-18T11:46:08;16.30;64.10
48686;DHT22;34485;51.536;3.816;2023-05-18T11:48:43;16.10;64.70
48686;DHT22;34485;51.536;3.816;2023-05-18T11:51:08;15.90;64.80
48686;DHT22;34485;51.536;3.816;2023-05-18T11:53:36;15.80;66.60
48686;DHT22;34485;51.536;3.816;2023-05-18T11:56:01;15.70;64.40
48686;DHT22;34485;51.536;3.816;2023-05-18T11:58:29;15.50;69.10
48686;DHT22;34485;51.536;3.816;2023-05-18T12:00:56;15.30;71.30
48686;DHT22;34485;51.536;3.816;2023-05-18T12:03:23;15.30;75.80
48686;DHT22;34485;51.536;3.816;2023-05-18T12:05:50;15.20;71.30
48686;DHT22;34485;51.536;3.816;2023-05-18T12:08:17;15.20;75.40
48686;DHT22;34485;51.536;3.816;2023-05-18T12:10:44;15.20;73.80
48686;DHT22;34485;51.536;3.816;2023-05-18T12:13:12;15.10;73.50
48686;DHT22;34485;51.536;3.816;2023-05-18T12:15:39;15.10;72.80
48686;DHT22;34485;51.536;3.816;2023-05-18T12:18:05;15.10;73.60
48686;DHT22;34485;51.536;3.816;2023-05-18T12:20:31;15.10;71.90
48686;DHT22;34485;51.536;3.816;2023-05-18T12:22:57;15.10;73.20
48686;DHT22;34485;51.536;3.816;2023-05-18T12:25:25;15.20;71.70
48686;DHT22;34485;51.536;3.816;2023-05-18T12:27:52;15.20;73.60
48686;DHT22;34485;51.536;3.816;2023-05-18T12:30:25;15.20;75.20
48686;DHT22;34485;51.536;3.816;2023-05-18T12:32:59;15.20;72.00
48686;DHT22;34485;51.536;3.816;2023-05-18T12:35:27;15.20;70.20
48686;DHT22;34485;51.536;3.816;2023-05-18T12:37:53;15.10;73.10
48686;DHT22;34485;51.536;3.816;2023-05-18T12:40:34;15.10;73.30
48686;DHT22;34485;51.536;3.816;2023-05-18T12:43:10;15.00;73.50
48686;DHT22;34485;51.536;3.816;2023-05-18T12:45:37;15.10;77.40
48686;DHT22;34485;51.536;3.816;2023-05-18T12:48:07;15.10;77.20
48686;DHT22;34485;51.536;3.816;2023-05-18T12:50:33;15.10;78.90
48686;DHT22;34485;51.536;3.816;2023-05-18T12:52:59;15.20;74.60
48686;DHT22;34485;51.536;3.816;2023-05-18T12:55:26;15.20;74.90
48686;DHT22;34485;51.536;3.816;2023-05-18T13:00:24;15.30;70.20
48686;DHT22;34485;51.536;3.816;2023-05-18T13:02:50;15.30;72.10
48686;DHT22;34485;51.536;3.816;2023-05-18T13:05:23;15.30;75.40
48686;DHT22;34485;51.536;3.816;2023-05-18T13:07:48;15.30;74.30
48686;DHT22;34485;51.536;3.816;2023-05-18T13:10:16;15.10;72.30
48686;DHT22;34485;51.536;3.816;2023-05-18T13:12:48;15.00;71.00
48686;DHT22;34485;51.536;3.816;2023-05-18T13:15:17;14.90;73.40
48686;DHT22;34485;51.536;3.816;2023-05-18T13:18:08;15.10;73.10
48686;DHT22;34485;51.536;3.816;2023-05-18T13:20:49;15.00;70.10
48686;DHT22;34485;51.536;3.816;2023-05-18T13:25:47;15.30;73.70
48686;DHT22;34485;51.536;3.816;2023-05-18T13:28:14;15.30;69.70
48686;DHT22;34485;51.536;3.816;2023-05-18T13:30:41;15.20;69.70
48686;DHT22;34485;51.536;3.816;2023-05-18T13:33:07;15.20;70.40
48686;DHT22;34485;51.536;3.816;2023-05-18T13:35:36;15.30;70.70
48686;DHT22;34485;51.536;3.816;2023-05-18T13:38:03;15.50;76.10
48686;DHT22;34485;51.536;3.816;2023-05-18T13:40:28;15.40;68.70
48686;DHT22;34485;51.536;3.816;2023-05-18T13:42:54;15.40;71.10
48686;DHT22;34485;51.536;3.816;2023-05-18T13:45:20;15.50;75.50
48686;DHT22;34485;51.536;3.816;2023-05-18T13:47:46;15.50;67.40
48686;DHT22;34485;51.536;3.816;2023-05-18T13:50:15;15.50;71.70
48686;DHT22;34485;51.536;3.816;2023-05-18T13:52:41;15.50;75.40
48686;DHT22;34485;51.536;3.816;2023-05-18T13:55:07;15.40;71.30
48686;DHT22;34485;51.536;3.816;2023-05-18T13:57:33;15.40;72.40
48686;DHT22;34485;51.536;3.816;2023-05-18T13:59:59;15.20;72.90
48686;DHT22;34485;51.536;3.816;2023-05-18T14:02:28;15.30;71.90
48686;DHT22;34485;51.536;3.816;2023-05-18T14:04:54;15.20;70.20
48686;DHT22;34485;51.536;3.816;2023-05-18T14:07:21;15.30;75.80
48686;DHT22;34485;51.536;3.816;2023-05-18T14:09:48;15.40;73.70
48686;DHT22;34485;51.536;3.816;2023-05-18T14:12:14;15.50;73.20
48686;DHT22;34485;51.536;3.816;2023-05-18T14:14:40;15.40;73.20
48686;DHT22;34485;51.536;3.816;2023-05-18T14:17:08;15.50;76.60
48686;DHT22;34485;51.536;3.816;2023-05-18T14:19:33;15.50;71.40
48686;DHT22;34485;51.536;3.816;2023-05-18T14:22:00;15.40;72.30
48686;DHT22;34485;51.536;3.816;2023-05-18T14:24:26;15.40;75.50
48686;DHT22;34485;51.536;3.816;2023-05-18T14:26:51;15.40;74.30
48686;DHT22;34485;51.536;3.816;2023-05-18T14:29:18;15.50;73.50
48686;DHT22;34485;51.536;3.816;2023-05-18T14:31:44;15.60;72.80
48686;DHT22;34485;51.536;3.816;2023-05-18T14:34:09;15.50;72.10
48686;DHT22;34485;51.536;3.816;2023-05-18T14:36:35;15.50;73.50
48686;DHT22;34485;51.536;3.816;2023-05-18T14:39:01;15.40;74.40
48686;DHT22;34485;51.536;3.816;2023-05-18T14:41:26;15.50;71.50
48686;DHT22;34485;51.536;3.816;2023-05-18T14:43:52;15.50;72.20
48686;DHT22;34485;51.536;3.816;2023-05-18T14:46:18;15.40;67.10
48686;DHT22;34485;51.536;3.816;2023-05-18T14:48:44;15.40;72.80
48686;DHT22;34485;51.536;3.816;2023-05-18T14:51:10;15.50;71.40
48686;DHT22;34485;51.536;3.816;2023-05-18T14:53:35;15.40;70.60
48686;DHT22;34485;51.536;3.816;2023-05-18T14:56:01;15.20;73.10
48686;DHT22;34485;51.536;3.816;2023-05-18T14:58:30;15.20;74.30
48686;DHT22;34485;51.536;3.816;2023-05-18T15:00:56;15.20;73.00
48686;DHT22;34485;51.536;3.816;2023-05-18T15:03:22;15.20;73.90
48686;DHT22;34485;51.536;3.816;2023-05-18T15:05:47;15.30;71.00
48686;DHT22;34485;51.536;3.816;2023-05-18T15:08:13;15.20;70.80
48686;DHT22;34485;51.536;3.816;2023-05-18T15:10:39;15.20;71.50
48686;DHT22;34485;51.536;3.816;2023-05-18T15:13:04;15.30;71.00
48686;DHT22;34485;51.536;3.816;2023-05-18T15:15:30;15.30;73.00
48686;DHT22;34485;51.536;3.816;2023-05-18T15:17:55;15.30;74.50
48686;DHT22;34485;51.536;3.816;2023-05-18T15:20:21;15.30;75.00
48686;DHT22;34485;51.536;3.816;2023-05-18T15:22:48;15.30;71.00
48686;DHT22;34485;51.536;3.816;2023-05-18T15:25:15;15.30;73.40
48686;DHT22;34485;51.536;3.816;2023-05-18T15:27:41;15.30;74.00
48686;DHT22;34485;51.536;3.816;2023-05-18T15:30:07;15.30;74.60
48686;DHT22;34485;51.536;3.816;2023-05-18T15:32:39;15.30;72.40
48686;DHT22;34485;51.536;3.816;2023-05-18T15:35:05;15.30;73.40
48686;DHT22;34485;51.536;3.816;2023-05-18T15:37:32;15.40;74.40
48686;DHT22;34485;51.536;3.816;2023-05-18T15:39:58;15.40;73.40
48686;DHT22;34485;51.536;3.816;2023-05-18T15:42:24;15.30;73.50
48686;DHT22;34485;51.536;3.816;2023-05-18T15:44:50;15.30;71.40
48686;DHT22;34485;51.536;3.816;2023-05-18T15:47:16;15.30;73.20
48686;DHT22;34485;51.536;3.816;2023-05-18T15:49:41;15.30;74.90
48686;DHT22;34485;51.536;3.816;2023-05-18T15:52:07;15.30;71.00
48686;DHT22;34485;51.536;3.816;2023-05-18T15:54:33;15.40;75.00
48686;DHT22;34485;51.536;3.816;2023-05-18T15:56:59;15.50;79.70
48686;DHT22;34485;51.536;3.816;2023-05-18T15:59:25;15.50;74.40
48686;DHT22;34485;51.536;3.816;2023-05-18T16:01:51;15.40;72.10
48686;DHT22;34485;51.536;3.816;2023-05-18T16:04:16;15.30;78.40
48686;DHT22;34485;51.536;3.816;2023-05-18T16:06:42;15.50;79.30
48686;DHT22;34485;51.536;3.816;2023-05-18T16:09:08;15.50;85.10